createdAt,value
2022-10-30T00:05:10.633Z,20.93
2022-10-30T00:10:50.590Z,21.27
2022-10-30T00:16:26.630Z,19.53
2022-10-30T00:27:38.916Z,19.77
2022-10-30T00:36:01.161Z,21.43
2022-10-30T00:44:38.357Z,18.10
2022-10-30T00:50:16.494Z,21.40
2022-10-30T00:55:48.637Z,13.83
2022-10-30T01:01:27.945Z,15.20
2022-10-30T01:07:09.795Z,14.13
2022-10-30T01:12:46.883Z,14.77
2022-10-30T01:18:23.290Z,15.80
2022-10-30T01:24:16.107Z,18.47
2022-10-30T01:35:33.730Z,14.50
2022-10-30T01:38:24.665Z,12.63
2022-10-30T01:46:48.377Z,15.13
2022-10-30T01:52:40.690Z,10.00
2022-10-30T02:01:02.763Z,13.50
2022-10-30T02:03:51.222Z,12.30
2022-10-30T02:06:39.711Z,12.07
2022-10-30T02:09:27.845Z,13.93
2022-10-30T02:15:03.933Z,15.47
2022-10-30T02:20:43.407Z,17.00
2022-10-30T02:26:21.054Z,18.63
2022-10-30T02:31:51.689Z,19.80
2022-10-30T02:37:25.181Z,16.00
2022-10-30T02:42:58.629Z,16.10
2022-10-30T03:01:52.167Z,19.83
2022-10-30T03:04:40.514Z,20.80
2022-10-30T03:07:28.986Z,17.90
2022-10-30T03:10:17.673Z,19.07
2022-10-30T03:15:47.490Z,13.97
2022-10-30T03:21:23.301Z,16.20
2022-10-30T03:24:11.988Z,14.17
2022-10-30T03:32:48.454Z,23.13
2022-10-30T03:38:25.820Z,17.67
2022-10-30T03:41:17.086Z,23.07
2022-10-30T03:46:44.775Z,15.37
2022-10-30T03:52:15.690Z,17.13
2022-10-30T03:57:44.850Z,18.87
2022-10-30T04:03:16.512Z,17.50
2022-10-30T04:08:54.123Z,13.00
2022-10-30T04:14:25.669Z,19.90
2022-10-30T04:20:00.497Z,17.10
2022-10-30T04:25:35.634Z,17.17
2022-10-30T04:31:09.180Z,20.77
2022-10-30T04:36:40.554Z,16.60
2022-10-30T04:42:10.145Z,13.97
2022-10-30T04:47:42.635Z,9.00
2022-10-30T04:53:14.513Z,9.93
2022-10-30T04:58:46.156Z,18.17
2022-10-30T05:04:16.925Z,16.17
2022-10-30T05:10:16.989Z,13.10
2022-10-30T05:16:12.653Z,14.57
2022-10-30T05:21:46.936Z,12.30
2022-10-30T05:27:13.439Z,16.30
2022-10-30T05:32:47.986Z,12.80
2022-10-30T05:35:37.636Z,15.13
2022-10-30T05:38:25.767Z,13.57
2022-10-30T05:50:00.890Z,12.60
2022-10-30T05:55:38.682Z,17.33
2022-10-30T06:01:10.349Z,16.57
2022-10-30T06:06:47.031Z,18.17
2022-10-30T06:25:41.928Z,14.80
2022-10-30T06:33:59.971Z,15.27
2022-10-30T06:36:48.051Z,15.47
2022-10-30T06:42:22.571Z,20.60
2022-10-30T06:47:54.917Z,17.60
2022-10-30T06:50:43.069Z,15.03
2022-10-30T06:56:18.210Z,17.30
2022-10-30T07:04:27.097Z,13.10
2022-10-30T07:07:15.849Z,22.27
2022-10-30T07:12:52.275Z,14.47
2022-10-30T07:18:31.007Z,13.50
2022-10-30T07:21:27.745Z,17.47
2022-10-30T07:24:19.544Z,10.67
2022-10-30T07:29:54.829Z,13.97
2022-10-30T07:35:30.595Z,15.17
2022-10-30T07:38:23.388Z,15.13
2022-10-30T07:44:12.407Z,12.27
2022-10-30T07:47:00.576Z,16.87
2022-10-30T07:52:35.034Z,14.17
2022-10-30T07:58:14.601Z,19.53
2022-10-30T08:01:04.186Z,14.20
2022-10-30T08:06:35.659Z,15.57
2022-10-30T08:09:26.294Z,14.10
2022-10-30T08:12:15.908Z,11.17
2022-10-30T08:15:04.559Z,14.97
2022-10-30T08:17:53.478Z,16.73
2022-10-30T08:23:29.806Z,17.07
2022-10-30T08:26:18.659Z,15.43
2022-10-30T08:31:58.883Z,23.03
2022-10-30T08:34:48.826Z,15.63
2022-10-30T08:37:36.827Z,21.00
2022-10-30T08:46:01.402Z,14.23
2022-10-30T08:48:49.787Z,16.83
2022-10-30T08:54:27.513Z,15.07
2022-10-30T08:57:18.174Z,12.87
2022-10-30T09:02:58.625Z,13.07
2022-10-30T09:08:32.320Z,12.17
2022-10-30T09:13:59.282Z,12.97
2022-10-30T09:22:26.216Z,13.13
2022-10-30T09:27:57.506Z,12.73
2022-10-30T09:33:38.057Z,12.37
2022-10-30T09:36:27.091Z,11.37
2022-10-30T09:42:18.472Z,13.67
2022-10-30T09:48:00.770Z,15.30
2022-10-30T09:59:30.376Z,20.63
2022-10-30T10:07:51.107Z,19.97
2022-10-30T10:10:42.081Z,16.23
2022-10-30T10:13:35.707Z,19.07
2022-10-30T10:16:27.740Z,16.67
2022-10-30T10:22:00.678Z,17.87
2022-10-30T10:24:49.066Z,21.33
2022-10-30T10:30:56.359Z,21.10
2022-10-30T10:36:37.549Z,18.50
2022-10-30T10:45:25.760Z,26.13
2022-10-30T10:48:36.218Z,21.20
2022-10-30T10:56:53.439Z,18.67
2022-10-30T10:59:47.731Z,21.13
2022-10-30T11:02:40.131Z,18.27
2022-10-30T11:11:09.451Z,19.83
2022-10-30T11:16:59.000Z,16.97
2022-10-30T11:25:31.153Z,16.63
2022-10-30T11:31:21.164Z,23.43
2022-10-30T11:37:33.718Z,19.13
2022-10-30T11:43:11.694Z,14.93
2022-10-30T11:48:55.316Z,19.93
2022-10-30T11:54:49.224Z,14.07
2022-10-30T12:00:28.685Z,18.37
2022-10-30T12:06:21.681Z,18.40
2022-10-30T12:12:06.714Z,19.77
2022-10-30T12:14:53.127Z,17.73
2022-10-30T12:17:41.589Z,22.30
2022-10-30T12:23:21.021Z,15.33
2022-10-30T12:26:12.098Z,16.30
2022-10-30T12:31:51.156Z,13.53
2022-10-30T12:37:32.313Z,16.30
2022-10-30T12:43:17.520Z,17.60
2022-10-30T12:48:57.500Z,16.17
2022-10-30T12:57:28.535Z,20.40
2022-10-30T13:00:18.560Z,17.73
2022-10-30T13:03:14.219Z,21.30
2022-10-30T13:11:43.832Z,20.53
2022-10-30T13:17:22.492Z,22.50
2022-10-30T13:25:58.066Z,18.20
2022-10-30T13:31:32.599Z,21.10
2022-10-30T13:34:30.267Z,22.97
2022-10-30T13:40:14.745Z,18.43
2022-10-30T13:45:59.539Z,19.20
2022-10-30T13:52:52.766Z,22.33
2022-10-30T14:01:17.623Z,22.27
2022-10-30T14:06:55.340Z,21.20
2022-10-30T14:12:52.705Z,28.07
2022-10-30T14:18:47.339Z,20.97
2022-10-30T14:24:32.791Z,22.57
2022-10-30T14:30:20.289Z,23.07
2022-10-30T14:33:33.260Z,21.07
2022-10-30T14:36:24.159Z,24.63
2022-10-30T14:42:21.603Z,24.03
2022-10-30T14:45:14.878Z,15.83
2022-10-30T14:48:06.210Z,24.03
2022-10-30T14:53:59.204Z,22.57
2022-10-30T14:56:49.321Z,22.70
2022-10-30T14:59:39.447Z,22.43
2022-10-30T15:05:46.458Z,20.47
2022-10-30T15:12:13.526Z,20.40
2022-10-30T15:17:47.095Z,21.13
2022-10-30T15:23:21.833Z,19.70
2022-10-30T15:28:57.643Z,23.90
2022-10-30T15:34:32.945Z,25.67
2022-10-30T15:40:18.331Z,22.77
2022-10-30T15:45:55.894Z,25.17
2022-10-30T15:48:48.406Z,22.77
2022-10-30T15:54:21.836Z,24.43
2022-10-30T16:00:08.596Z,19.67
2022-10-30T16:05:45.543Z,22.03
2022-10-30T16:11:22.617Z,21.30
2022-10-30T16:17:02.075Z,21.30
2022-10-30T16:19:52.519Z,20.53
2022-10-30T16:25:31.392Z,21.93
2022-10-30T16:31:15.368Z,23.33
2022-10-30T16:36:50.533Z,21.63
2022-10-30T16:42:26.771Z,27.87
2022-10-30T16:48:40.561Z,24.77
2022-10-30T16:51:29.235Z,21.47
2022-10-30T16:59:54.822Z,18.70
2022-10-30T17:05:33.750Z,28.87
2022-10-30T17:14:19.922Z,22.97
2022-10-30T17:20:12.830Z,23.87
2022-10-30T17:23:08.530Z,21.57
2022-10-30T17:28:40.183Z,21.90
2022-10-30T17:34:21.739Z,22.87
2022-10-30T17:39:50.920Z,19.50
2022-10-30T17:45:20.859Z,22.10
2022-10-30T17:50:57.482Z,27.87
2022-10-30T17:56:35.285Z,24.87
2022-10-30T18:02:15.210Z,26.40
2022-10-30T18:07:42.912Z,26.83
2022-10-30T18:13:15.816Z,23.83
2022-10-30T18:18:55.600Z,52.10
2022-10-30T18:24:42.933Z,44.53
2022-10-30T18:30:21.984Z,31.57
2022-10-30T18:35:59.162Z,27.73
2022-10-30T18:41:46.246Z,31.97
2022-10-30T18:47:24.968Z,24.93
2022-10-30T18:53:01.256Z,23.83
2022-10-30T18:58:44.128Z,33.03
2022-10-30T19:04:21.890Z,29.27
2022-10-30T19:07:06.471Z,23.27
2022-10-30T19:12:51.483Z,23.63
2022-10-30T19:18:41.421Z,29.07
2022-10-30T19:24:38.507Z,25.97
2022-10-30T19:30:18.701Z,21.50
2022-10-30T19:35:55.462Z,22.40
2022-10-30T19:41:26.374Z,20.70
2022-10-30T19:46:58.690Z,25.90
2022-10-30T19:52:34.484Z,22.00
2022-10-30T19:58:12.791Z,22.50
2022-10-30T20:03:45.708Z,22.03
2022-10-30T20:09:23.725Z,20.43
2022-10-30T20:15:01.423Z,27.37
2022-10-30T20:21:08.907Z,27.40
2022-10-30T20:26:45.308Z,30.20
2022-10-30T20:32:23.483Z,24.13
2022-10-30T20:35:13.353Z,24.77
2022-10-30T20:40:46.382Z,24.60
2022-10-30T20:49:17.339Z,26.33
2022-10-30T20:54:40.866Z,22.20
2022-10-30T21:11:30.508Z,24.17
2022-10-30T21:17:33.453Z,27.20
2022-10-30T21:23:19.394Z,27.70
2022-10-30T21:28:56.234Z,29.93
2022-10-30T21:31:44.717Z,20.43
2022-10-30T21:34:34.317Z,21.80
2022-10-30T21:40:28.406Z,20.80
2022-10-30T21:46:06.647Z,21.93
2022-10-30T21:51:42.202Z,23.27
2022-10-30T22:02:43.668Z,21.13
2022-10-30T22:05:33.589Z,19.73
2022-10-30T22:13:43.955Z,23.77
2022-10-30T22:19:14.637Z,21.27
2022-10-30T22:24:48.957Z,23.03
2022-10-30T22:27:38.039Z,20.37
2022-10-30T22:33:17.167Z,20.90
2022-10-30T22:39:00.560Z,22.60
2022-10-30T22:41:49.082Z,22.40
2022-10-30T22:47:25.099Z,23.00
2022-10-30T22:53:00.453Z,25.47
2022-10-30T22:55:50.017Z,18.97
2022-10-30T23:01:27.011Z,18.13
2022-10-30T23:07:06.982Z,18.33
2022-10-30T23:12:39.930Z,19.07
2022-10-30T23:15:31.616Z,16.47
2022-10-30T23:21:08.921Z,18.40
2022-10-30T23:23:57.639Z,18.60
2022-10-30T23:29:44.572Z,18.77
2022-10-30T23:35:21.168Z,19.20
2022-10-30T23:40:58.410Z,22.53
2022-10-30T23:46:34.304Z,17.67
2022-10-30T23:49:23.170Z,18.30
2022-10-30T23:52:11.994Z,17.70
2022-10-30T23:57:42.650Z,16.97
